sensor_id;sensor_type;location;lat;lon;timestamp;pressure;altitude;pressure_sealevel;temperature;humidity
71996;BME280;59862;47.732;7.346;2023-08-17T00:02:08;98149.97;;;20.32;80.27
71996;BME280;59862;47.732;7.346;2023-08-17T00:04:35;98146.28;;;20.34;80.17
71996;BME280;59862;47.732;7.346;2023-08-17T00:07:03;98142.34;;;20.39;79.80
71996;BME280;59862;47.732;7.346;2023-08-17T00:09:30;98142.91;;;20.31;79.90
71996;BME280;59862;47.732;7.346;2023-08-17T00:11:58;98143.11;;;20.32;79.97
71996;BME280;59862;47.732;7.346;2023-08-17T00:14:26;98146.20;;;20.20;80.45
71996;BME280;59862;47.732;7.346;2023-08-17T00:16:53;98150.16;;;20.26;80.30
71996;BME280;59862;47.732;7.346;2023-08-17T00:19:21;98145.27;;;20.22;80.21
71996;BME280;59862;47.732;7.346;2023-08-17T00:21:48;98141.91;;;20.15;80.22
71996;BME280;59862;47.732;7.346;2023-08-17T00:24:16;98142.47;;;20.11;80.44
71996;BME280;59862;47.732;7.346;2023-08-17T00:26:43;98137.19;;;20.08;80.25
71996;BME280;59862;47.732;7.346;2023-08-17T00:29:10;98146.59;;;20.07;80.45
71996;BME280;59862;47.732;7.346;2023-08-17T00:31:38;98143.80;;;20.00;80.75
71996;BME280;59862;47.732;7.346;2023-08-17T00:34:05;98144.56;;;19.93;80.92
71996;BME280;59862;47.732;7.346;2023-08-17T00:36:33;98146.13;;;19.94;81.06
71996;BME280;59862;47.732;7.346;2023-08-17T00:39:01;98143.96;;;19.94;81.14
71996;BME280;59862;47.732;7.346;2023-08-17T00:41:28;98143.02;;;19.96;80.93
71996;BME280;59862;47.732;7.346;2023-08-17T00:43:57;98146.28;;;19.92;81.09
71996;BME280;59862;47.732;7.346;2023-08-17T00:46:25;98143.12;;;19.86;81.34
71996;BME280;59862;47.732;7.346;2023-08-17T00:48:55;98139.56;;;19.78;81.56
71996;BME280;59862;47.732;7.346;2023-08-17T00:51:25;98145.81;;;19.75;81.69
71996;BME280;59862;47.732;7.346;2023-08-17T00:53:56;98154.64;;;19.78;81.55
71996;BME280;59862;47.732;7.346;2023-08-17T00:56:24;98143.43;;;19.66;81.85
71996;BME280;59862;47.732;7.346;2023-08-17T00:58:53;98143.03;;;19.64;81.90
71996;BME280;59862;47.732;7.346;2023-08-17T01:01:22;98145.55;;;19.60;82.12
71996;BME280;59862;47.732;7.346;2023-08-17T01:03:49;98148.06;;;19.55;82.32
71996;BME280;59862;47.732;7.346;2023-08-17T01:06:17;98150.98;;;19.52;82.42
71996;BME280;59862;47.732;7.346;2023-08-17T01:08:46;98154.29;;;19.48;82.47
71996;BME280;59862;47.732;7.346;2023-08-17T01:14:00;98159.77;;;19.48;82.44
71996;BME280;59862;47.732;7.346;2023-08-17T01:16:35;98156.60;;;19.42;82.71
71996;BME280;59862;47.732;7.346;2023-08-17T01:19:04;98164.02;;;19.42;82.85
71996;BME280;59862;47.732;7.346;2023-08-17T01:21:46;98160.48;;;19.38;82.95
71996;BME280;59862;47.732;7.346;2023-08-17T01:24:12;98164.19;;;19.36;82.96
71996;BME280;59862;47.732;7.346;2023-08-17T01:26:39;98168.10;;;19.35;82.89
71996;BME280;59862;47.732;7.346;2023-08-17T01:29:07;98165.73;;;19.33;83.03
71996;BME280;59862;47.732;7.346;2023-08-17T01:31:44;98162.19;;;19.29;83.01
71996;BME280;59862;47.732;7.346;2023-08-17T01:34:10;98158.08;;;19.29;83.10
71996;BME280;59862;47.732;7.346;2023-08-17T01:36:46;98156.94;;;19.34;82.99
71996;BME280;59862;47.732;7.346;2023-08-17T01:39:13;98156.70;;;19.29;83.05
71996;BME280;59862;47.732;7.346;2023-08-17T01:41:45;98154.17;;;19.30;82.95
71996;BME280;59862;47.732;7.346;2023-08-17T01:44:14;98151.83;;;19.32;82.79
71996;BME280;59862;47.732;7.346;2023-08-17T01:46:41;98151.97;;;19.22;82.78
71996;BME280;59862;47.732;7.346;2023-08-17T01:49:09;98147.69;;;19.28;82.63
71996;BME280;59862;47.732;7.346;2023-08-17T01:51:37;98152.36;;;19.24;82.84
71996;BME280;59862;47.732;7.346;2023-08-17T01:54:04;98161.59;;;19.26;82.71
71996;BME280;59862;47.732;7.346;2023-08-17T01:56:32;98156.34;;;19.31;82.57
71996;BME280;59862;47.732;7.346;2023-08-17T01:58:59;98153.17;;;19.25;82.63
71996;BME280;59862;47.732;7.346;2023-08-17T02:01:27;98157.24;;;19.21;82.84
71996;BME280;59862;47.732;7.346;2023-08-17T02:03:55;98157.01;;;19.17;82.94
71996;BME280;59862;47.732;7.346;2023-08-17T02:06:22;98149.16;;;19.15;83.18
71996;BME280;59862;47.732;7.346;2023-08-17T02:08:50;98147.39;;;19.13;83.36
71996;BME280;59862;47.732;7.346;2023-08-17T02:11:18;98150.86;;;19.06;83.60
71996;BME280;59862;47.732;7.346;2023-08-17T02:13:45;98154.44;;;19.10;83.64
71996;BME280;59862;47.732;7.346;2023-08-17T02:16:12;98156.58;;;19.11;83.56
71996;BME280;59862;47.732;7.346;2023-08-17T02:18:40;98147.89;;;19.02;83.91
71996;BME280;59862;47.732;7.346;2023-08-17T02:21:07;98147.22;;;18.95;84.26
71996;BME280;59862;47.732;7.346;2023-08-17T02:23:35;98152.33;;;18.96;84.39
71996;BME280;59862;47.732;7.346;2023-08-17T02:26:03;98147.15;;;19.05;84.04
71996;BME280;59862;47.732;7.346;2023-08-17T02:28:30;98140.47;;;19.02;84.28
71996;BME280;59862;47.732;7.346;2023-08-17T02:30:59;98142.14;;;18.93;84.45
71996;BME280;59862;47.732;7.346;2023-08-17T02:33:26;98140.80;;;18.97;84.46
71996;BME280;59862;47.732;7.346;2023-08-17T02:35:53;98133.12;;;18.93;84.60
71996;BME280;59862;47.732;7.346;2023-08-17T02:38:21;98131.92;;;18.90;84.77
71996;BME280;59862;47.732;7.346;2023-08-17T02:40:49;98134.65;;;18.86;84.96
71996;BME280;59862;47.732;7.346;2023-08-17T02:43:17;98135.81;;;18.85;85.10
71996;BME280;59862;47.732;7.346;2023-08-17T02:45:44;98145.56;;;18.83;85.43
71996;BME280;59862;47.732;7.346;2023-08-17T02:48:12;98140.29;;;18.84;85.49
71996;BME280;59862;47.732;7.346;2023-08-17T02:50:39;98145.84;;;18.70;85.97
71996;BME280;59862;47.732;7.346;2023-08-17T02:53:06;98150.44;;;18.80;85.82
71996;BME280;59862;47.732;7.346;2023-08-17T02:55:34;98144.92;;;18.76;86.09
71996;BME280;59862;47.732;7.346;2023-08-17T02:58:02;98137.06;;;18.71;86.40
71996;BME280;59862;47.732;7.346;2023-08-17T03:00:29;98136.63;;;18.69;86.66
71996;BME280;59862;47.732;7.346;2023-08-17T03:02:57;98136.30;;;18.74;86.66
71996;BME280;59862;47.732;7.346;2023-08-17T03:05:24;98134.20;;;18.81;86.58
71996;BME280;59862;47.732;7.346;2023-08-17T03:07:52;98140.85;;;18.80;86.58
71996;BME280;59862;47.732;7.346;2023-08-17T03:10:19;98141.73;;;18.95;86.10
71996;BME280;59862;47.732;7.346;2023-08-17T03:12:46;98141.45;;;18.83;86.30
71996;BME280;59862;47.732;7.346;2023-08-17T03:15:14;98141.25;;;18.82;86.49
71996;BME280;59862;47.732;7.346;2023-08-17T03:17:41;98134.81;;;18.84;86.52
71996;BME280;59862;47.732;7.346;2023-08-17T03:20:10;98135.58;;;18.81;86.62
71996;BME280;59862;47.732;7.346;2023-08-17T03:22:37;98135.38;;;18.80;86.62
71996;BME280;59862;47.732;7.346;2023-08-17T03:25:06;98134.97;;;18.78;86.82
71996;BME280;59862;47.732;7.346;2023-08-17T03:27:34;98127.16;;;18.80;86.95
71996;BME280;59862;47.732;7.346;2023-08-17T03:30:01;98132.97;;;18.75;87.03
71996;BME280;59862;47.732;7.346;2023-08-17T03:32:29;98129.05;;;18.72;87.48
71996;BME280;59862;47.732;7.346;2023-08-17T03:34:56;98134.58;;;18.79;87.23
71996;BME280;59862;47.732;7.346;2023-08-17T03:37:23;98132.92;;;18.67;87.78
71996;BME280;59862;47.732;7.346;2023-08-17T03:39:51;98128.66;;;18.74;87.76
71996;BME280;59862;47.732;7.346;2023-08-17T03:42:18;98134.37;;;18.78;87.78
71996;BME280;59862;47.732;7.346;2023-08-17T03:44:46;98139.04;;;18.74;87.91
71996;BME280;59862;47.732;7.346;2023-08-17T03:47:14;98141.33;;;18.68;88.68
71996;BME280;59862;47.732;7.346;2023-08-17T03:49:41;98148.95;;;18.69;88.75
71996;BME280;59862;47.732;7.346;2023-08-17T03:52:08;98148.09;;;18.61;89.11
71996;BME280;59862;47.732;7.346;2023-08-17T03:54:36;98151.23;;;18.60;89.21
71996;BME280;59862;47.732;7.346;2023-08-17T03:57:04;98146.80;;;18.68;88.86
71996;BME280;59862;47.732;7.346;2023-08-17T03:59:32;98152.08;;;18.67;88.79
71996;BME280;59862;47.732;7.346;2023-08-17T04:01:59;98144.67;;;18.71;88.56
71996;BME280;59862;47.732;7.346;2023-08-17T04:04:27;98137.47;;;18.73;88.39
71996;BME280;59862;47.732;7.346;2023-08-17T04:06:54;98139.97;;;18.68;88.31
71996;BME280;59862;47.732;7.346;2023-08-17T04:09:22;98138.23;;;18.74;88.10
71996;BME280;59862;47.732;7.346;2023-08-17T04:11:49;98138.23;;;18.74;87.91
71996;BME280;59862;47.732;7.346;2023-08-17T04:14:16;98143.83;;;18.64;88.11
71996;BME280;59862;47.732;7.346;2023-08-17T04:16:44;98140.29;;;18.63;87.93
71996;BME280;59862;47.732;7.346;2023-08-17T04:19:12;98146.45;;;18.74;87.83
71996;BME280;59862;47.732;7.346;2023-08-17T04:21:39;98147.09;;;18.80;87.36
71996;BME280;59862;47.732;7.346;2023-08-17T04:24:07;98141.05;;;18.81;87.16
71996;BME280;59862;47.732;7.346;2023-08-17T04:26:34;98142.02;;;18.79;86.88
71996;BME280;59862;47.732;7.346;2023-08-17T04:29:01;98138.44;;;18.75;86.77
71996;BME280;59862;47.732;7.346;2023-08-17T04:31:29;98137.62;;;18.70;86.84
71996;BME280;59862;47.732;7.346;2023-08-17T04:33:56;98134.13;;;18.74;86.67
71996;BME280;59862;47.732;7.346;2023-08-17T04:36:23;98130.22;;;18.71;86.70
71996;BME280;59862;47.732;7.346;2023-08-17T04:38:51;98129.49;;;18.78;86.59
71996;BME280;59862;47.732;7.346;2023-08-17T04:41:18;98123.14;;;18.70;86.69
71996;BME280;59862;47.732;7.346;2023-08-17T04:43:46;98126.76;;;18.57;87.17
71996;BME280;59862;47.732;7.346;2023-08-17T04:46:15;98132.95;;;18.71;87.01
71996;BME280;59862;47.732;7.346;2023-08-17T04:48:43;98137.39;;;18.66;86.75
71996;BME280;59862;47.732;7.346;2023-08-17T04:51:10;98143.34;;;18.75;86.67
71996;BME280;59862;47.732;7.346;2023-08-17T04:53:38;98141.37;;;18.76;86.47
71996;BME280;59862;47.732;7.346;2023-08-17T04:56:06;98150.59;;;18.77;86.77
71996;BME280;59862;47.732;7.346;2023-08-17T04:58:33;98151.84;;;18.87;86.30
71996;BME280;59862;47.732;7.346;2023-08-17T05:01:01;98155.07;;;18.76;86.36
71996;BME280;59862;47.732;7.346;2023-08-17T05:03:28;98142.06;;;18.86;86.21
71996;BME280;59862;47.732;7.346;2023-08-17T05:05:57;98150.52;;;18.91;86.04
71996;BME280;59862;47.732;7.346;2023-08-17T05:08:25;98140.29;;;18.84;85.99
71996;BME280;59862;47.732;7.346;2023-08-17T05:10:52;98142.63;;;18.82;86.03
71996;BME280;59862;47.732;7.346;2023-08-17T05:13:20;98142.66;;;18.85;86.06
71996;BME280;59862;47.732;7.346;2023-08-17T05:15:47;98142.34;;;18.94;86.01
71996;BME280;59862;47.732;7.346;2023-08-17T05:18:15;98140.36;;;18.91;86.05
71996;BME280;59862;47.732;7.346;2023-08-17T05:20:42;98138.36;;;18.88;86.19
71996;BME280;59862;47.732;7.346;2023-08-17T05:23:09;98143.10;;;18.91;86.33
71996;BME280;59862;47.732;7.346;2023-08-17T05:25:37;98140.93;;;18.91;86.25
71996;BME280;59862;47.732;7.346;2023-08-17T05:28:05;98139.93;;;18.89;86.24
71996;BME280;59862;47.732;7.346;2023-08-17T05:30:33;98140.29;;;18.84;86.32
71996;BME280;59862;47.732;7.346;2023-08-17T05:33:01;98153.16;;;19.00;85.78
71996;BME280;59862;47.732;7.346;2023-08-17T05:35:28;98150.52;;;18.91;85.93
71996;BME280;59862;47.732;7.346;2023-08-17T05:37:56;98149.31;;;18.88;86.19
71996;BME280;59862;47.732;7.346;2023-08-17T05:40:23;98156.19;;;18.67;86.79
71996;BME280;59862;47.732;7.346;2023-08-17T05:42:50;98153.78;;;18.83;87.06
71996;BME280;59862;47.732;7.346;2023-08-17T05:45:18;98158.24;;;18.78;86.85
71996;BME280;59862;47.732;7.346;2023-08-17T05:47:45;98162.16;;;18.80;86.82
71996;BME280;59862;47.732;7.346;2023-08-17T05:50:13;98165.70;;;18.81;86.72
71996;BME280;59862;47.732;7.346;2023-08-17T05:52:41;98172.21;;;18.69;87.51
71996;BME280;59862;47.732;7.346;2023-08-17T05:55:09;98169.88;;;18.67;87.61
71996;BME280;59862;47.732;7.346;2023-08-17T05:57:36;98172.92;;;18.58;88.29
71996;BME280;59862;47.732;7.346;2023-08-17T06:00:04;98173.73;;;18.63;88.18
71996;BME280;59862;47.732;7.346;2023-08-17T06:02:32;98172.32;;;18.59;88.42
71996;BME280;59862;47.732;7.346;2023-08-17T06:04:59;98173.87;;;18.77;88.11
71996;BME280;59862;47.732;7.346;2023-08-17T06:07:27;98173.91;;;18.81;87.78
71996;BME280;59862;47.732;7.346;2023-08-17T06:09:54;98176.33;;;18.90;87.43
71996;BME280;59862;47.732;7.346;2023-08-17T06:12:22;98176.52;;;19.08;86.71
71996;BME280;59862;47.732;7.346;2023-08-17T06:14:49;98179.30;;;19.15;86.12
71996;BME280;59862;47.732;7.346;2023-08-17T06:17:16;98178.02;;;18.81;87.33
71996;BME280;59862;47.732;7.346;2023-08-17T06:19:44;98181.97;;;18.87;87.41
71996;BME280;59862;47.732;7.346;2023-08-17T06:22:12;98169.06;;;19.05;87.04
71996;BME280;59862;47.732;7.346;2023-08-17T06:24:39;98174.36;;;18.90;86.58
71996;BME280;59862;47.732;7.346;2023-08-17T06:27:06;98179.23;;;18.87;86.55
71996;BME280;59862;47.732;7.346;2023-08-17T06:29:34;98180.44;;;18.90;86.33
71996;BME280;59862;47.732;7.346;2023-08-17T06:32:01;98182.72;;;19.01;86.66
71996;BME280;59862;47.732;7.346;2023-08-17T06:34:29;98191.19;;;18.89;86.17
71996;BME280;59862;47.732;7.346;2023-08-17T06:37:01;98189.20;;;19.06;86.02
71996;BME280;59862;47.732;7.346;2023-08-17T06:39:30;98200.31;;;19.00;85.95
71996;BME280;59862;47.732;7.346;2023-08-17T06:41:57;98193.52;;;19.07;86.11
71996;BME280;59862;47.732;7.346;2023-08-17T06:44:24;98183.31;;;19.28;85.70
71996;BME280;59862;47.732;7.346;2023-08-17T06:46:52;98188.31;;;19.16;86.17
71996;BME280;59862;47.732;7.346;2023-08-17T06:49:19;98190.62;;;19.38;84.98
71996;BME280;59862;47.732;7.346;2023-08-17T06:51:47;98192.01;;;19.69;84.17
71996;BME280;59862;47.732;7.346;2023-08-17T06:54:14;98185.60;;;19.79;82.92
71996;BME280;59862;47.732;7.346;2023-08-17T06:56:42;98193.11;;;19.89;82.67
71996;BME280;59862;47.732;7.346;2023-08-17T06:59:09;98193.22;;;20.11;81.68
71996;BME280;59862;47.732;7.346;2023-08-17T07:01:36;98189.77;;;19.90;81.33
71996;BME280;59862;47.732;7.346;2023-08-17T07:04:04;98194.02;;;20.11;80.52
71996;BME280;59862;47.732;7.346;2023-08-17T07:06:31;98194.06;;;20.26;79.56
71996;BME280;59862;47.732;7.346;2023-08-17T07:08:59;98196.45;;;20.35;80.44
71996;BME280;59862;47.732;7.346;2023-08-17T07:11:27;98197.20;;;20.21;78.85
71996;BME280;59862;47.732;7.346;2023-08-17T07:13:54;98202.17;;;20.50;79.13
71996;BME280;59862;47.732;7.346;2023-08-17T07:16:22;98206.89;;;20.50;78.79
71996;BME280;59862;47.732;7.346;2023-08-17T07:18:49;98214.31;;;20.46;78.61
71996;BME280;59862;47.732;7.346;2023-08-17T07:21:17;98217.89;;;20.53;78.12
71996;BME280;59862;47.732;7.346;2023-08-17T07:23:45;98216.16;;;20.66;77.91
71996;BME280;59862;47.732;7.346;2023-08-17T07:26:13;98215.16;;;20.72;76.83
71996;BME280;59862;47.732;7.346;2023-08-17T07:28:41;98216.03;;;20.90;76.65
71996;BME280;59862;47.732;7.346;2023-08-17T07:31:08;98220.16;;;21.16;75.67
71996;BME280;59862;47.732;7.346;2023-08-17T07:33:36;98218.39;;;21.10;74.14
71996;BME280;59862;47.732;7.346;2023-08-17T07:36:03;98222.54;;;21.24;74.16
71996;BME280;59862;47.732;7.346;2023-08-17T07:38:31;98221.73;;;21.42;74.14
71996;BME280;59862;47.732;7.346;2023-08-17T07:40:59;98222.52;;;21.50;73.68
71996;BME280;59862;47.732;7.346;2023-08-17T07:43:26;98226.64;;;21.46;73.59
71996;BME280;59862;47.732;7.346;2023-08-17T07:45:57;98220.56;;;21.43;74.19
71996;BME280;59862;47.732;7.346;2023-08-17T07:48:25;98221.33;;;21.47;74.24
71996;BME280;59862;47.732;7.346;2023-08-17T07:50:53;98225.27;;;21.68;74.24
71996;BME280;59862;47.732;7.346;2023-08-17T07:53:20;98226.45;;;21.71;73.35
71996;BME280;59862;47.732;7.346;2023-08-17T07:55:48;98226.84;;;21.76;73.60
71996;BME280;59862;47.732;7.346;2023-08-17T07:58:15;98229.78;;;21.70;73.60
71996;BME280;59862;47.732;7.346;2023-08-17T08:00:43;98230.74;;;21.86;73.82
71996;BME280;59862;47.732;7.346;2023-08-17T08:03:10;98231.51;;;21.90;73.16
71996;BME280;59862;47.732;7.346;2023-08-17T08:05:37;98237.39;;;22.00;73.01
71996;BME280;59862;47.732;7.346;2023-08-17T08:08:05;98238.38;;;21.98;72.84
71996;BME280;59862;47.732;7.346;2023-08-17T08:10:33;98238.28;;;22.27;71.62
71996;BME280;59862;47.732;7.346;2023-08-17T08:13:01;98241.17;;;22.39;71.43
71996;BME280;59862;47.732;7.346;2023-08-17T08:15:29;98235.34;;;22.22;70.95
71996;BME280;59862;47.732;7.346;2023-08-17T08:17:56;98237.77;;;22.61;70.87
71996;BME280;59862;47.732;7.346;2023-08-17T08:20:24;98243.33;;;22.84;70.57
71996;BME280;59862;47.732;7.346;2023-08-17T08:22:51;98237.69;;;23.05;69.11
71996;BME280;59862;47.732;7.346;2023-08-17T08:25:19;98231.59;;;23.06;67.69
71996;BME280;59862;47.732;7.346;2023-08-17T08:27:46;98228.73;;;23.20;68.43
71996;BME280;59862;47.732;7.346;2023-08-17T08:30:14;98233.94;;;23.38;67.46
71996;BME280;59862;47.732;7.346;2023-08-17T08:32:41;98243.69;;;22.89;69.38
71996;BME280;59862;47.732;7.346;2023-08-17T08:35:09;98236.30;;;23.09;68.41
71996;BME280;59862;47.732;7.346;2023-08-17T08:37:36;98232.82;;;23.73;67.70
71996;BME280;59862;47.732;7.346;2023-08-17T08:40:05;98236.77;;;23.72;65.96
71996;BME280;59862;47.732;7.346;2023-08-17T08:42:33;98240.63;;;23.37;67.59
71996;BME280;59862;47.732;7.346;2023-08-17T08:45:01;98242.39;;;24.00;66.76
71996;BME280;59862;47.732;7.346;2023-08-17T08:47:28;98244.94;;;24.02;65.40
71996;BME280;59862;47.732;7.346;2023-08-17T08:50:02;98246.03;;;24.12;66.29
71996;BME280;59862;47.732;7.346;2023-08-17T08:52:42;98247.67;;;24.56;64.43
71996;BME280;59862;47.732;7.346;2023-08-17T08:55:21;98251.53;;;24.47;64.67
71996;BME280;59862;47.732;7.346;2023-08-17T08:57:50;98249.43;;;24.89;63.98
71996;BME280;59862;47.732;7.346;2023-08-17T09:00:18;98243.95;;;25.13;63.24
71996;BME280;59862;47.732;7.346;2023-08-17T09:02:46;98250.38;;;25.07;62.91
71996;BME280;59862;47.732;7.346;2023-08-17T09:05:15;98253.04;;;25.26;62.92
71996;BME280;59862;47.732;7.346;2023-08-17T09:07:43;98250.83;;;25.65;60.85
71996;BME280;59862;47.732;7.346;2023-08-17T09:10:12;98246.44;;;25.55;60.71
71996;BME280;59862;47.732;7.346;2023-08-17T09:12:41;98245.95;;;25.72;61.74
71996;BME280;59862;47.732;7.346;2023-08-17T09:15:09;98243.62;;;25.59;62.04
71996;BME280;59862;47.732;7.346;2023-08-17T09:17:37;98237.04;;;24.86;64.42
71996;BME280;59862;47.732;7.346;2023-08-17T09:20:06;98232.02;;;25.88;62.04
71996;BME280;59862;47.732;7.346;2023-08-17T09:22:42;98230.64;;;25.88;63.10
71996;BME280;59862;47.732;7.346;2023-08-17T09:25:11;98223.66;;;25.59;63.42
71996;BME280;59862;47.732;7.346;2023-08-17T09:27:40;98218.72;;;26.52;62.50
71996;BME280;59862;47.732;7.346;2023-08-17T09:30:11;98221.38;;;26.76;60.49
71996;BME280;59862;47.732;7.346;2023-08-17T09:32:39;98222.45;;;26.90;60.06
71996;BME280;59862;47.732;7.346;2023-08-17T09:35:07;98222.16;;;26.07;61.76
71996;BME280;59862;47.732;7.346;2023-08-17T09:37:34;98207.78;;;26.36;61.12
71996;BME280;59862;47.732;7.346;2023-08-17T09:40:02;98214.32;;;26.26;59.61
71996;BME280;59862;47.732;7.346;2023-08-17T09:42:29;98206.35;;;27.02;58.17
71996;BME280;59862;47.732;7.346;2023-08-17T09:44:58;98198.02;;;27.81;55.99
71996;BME280;59862;47.732;7.346;2023-08-17T09:47:27;98200.84;;;28.23;55.82
71996;BME280;59862;47.732;7.346;2023-08-17T09:49:56;98192.20;;;27.83;56.74
71996;BME280;59862;47.732;7.346;2023-08-17T09:52:24;98186.26;;;28.19;55.42
71996;BME280;59862;47.732;7.346;2023-08-17T09:54:52;98173.58;;;28.52;54.32
71996;BME280;59862;47.732;7.346;2023-08-17T09:57:22;98178.79;;;28.37;54.54
71996;BME280;59862;47.732;7.346;2023-08-17T09:59:50;98171.28;;;27.87;55.46
71996;BME280;59862;47.732;7.346;2023-08-17T10:02:22;98176.64;;;27.48;55.74
71996;BME280;59862;47.732;7.346;2023-08-17T10:04:52;98179.11;;;27.84;53.38
71996;BME280;59862;47.732;7.346;2023-08-17T10:07:21;98173.89;;;27.86;53.16
71996;BME280;59862;47.732;7.346;2023-08-17T10:09:54;98175.05;;;26.93;52.83
71996;BME280;59862;47.732;7.346;2023-08-17T10:12:25;98162.59;;;26.48;54.60
71996;BME280;59862;47.732;7.346;2023-08-17T10:14:55;98162.63;;;26.07;56.02
71996;BME280;59862;47.732;7.346;2023-08-17T10:17:27;98165.85;;;26.14;55.95
71996;BME280;59862;47.732;7.346;2023-08-17T10:19:58;98162.69;;;26.52;56.96
71996;BME280;59862;47.732;7.346;2023-08-17T10:25:12;98151.88;;;27.33;52.14
71996;BME280;59862;47.732;7.346;2023-08-17T10:27:43;98155.30;;;26.91;53.58
71996;BME280;59862;47.732;7.346;2023-08-17T10:30:11;98162.41;;;26.47;55.57
71996;BME280;59862;47.732;7.346;2023-08-17T10:32:40;98154.72;;;26.46;54.62
71996;BME280;59862;47.732;7.346;2023-08-17T10:35:10;98148.48;;;26.50;56.33
71996;BME280;59862;47.732;7.346;2023-08-17T10:37:39;98151.03;;;26.78;57.01
71996;BME280;59862;47.732;7.346;2023-08-17T10:40:08;98137.36;;;26.25;56.35
71996;BME280;59862;47.732;7.346;2023-08-17T10:42:36;98143.30;;;25.95;57.86
71996;BME280;59862;47.732;7.346;2023-08-17T10:45:30;98142.22;;;25.25;65.17
71996;BME280;59862;47.732;7.346;2023-08-17T10:48:33;98129.11;;;25.17;66.75
71996;BME280;59862;47.732;7.346;2023-08-17T10:50:40;98125.29;;;25.11;67.42
71996;BME280;59862;47.732;7.346;2023-08-17T10:53:12;98122.50;;;24.75;69.20
71996;BME280;59862;47.732;7.346;2023-08-17T10:55:46;98121.35;;;24.45;69.96
71996;BME280;59862;47.732;7.346;2023-08-17T10:58:20;98114.40;;;24.49;69.89
71996;BME280;59862;47.732;7.346;2023-08-17T11:00:48;98106.21;;;24.14;70.61
71996;BME280;59862;47.732;7.346;2023-08-17T11:03:20;98106.64;;;24.40;69.91
71996;BME280;59862;47.732;7.346;2023-08-17T11:05:50;98105.33;;;23.89;70.83
71996;BME280;59862;47.732;7.346;2023-08-17T11:11:04;98098.09;;;24.30;69.51
71996;BME280;59862;47.732;7.346;2023-08-17T11:13:34;98090.38;;;24.57;69.61
71996;BME280;59862;47.732;7.346;2023-08-17T11:16:04;98103.25;;;24.56;69.18
71996;BME280;59862;47.732;7.346;2023-08-17T11:18:33;98099.72;;;24.67;68.62
71996;BME280;59862;47.732;7.346;2023-08-17T11:21:03;98094.17;;;24.83;67.49
71996;BME280;59862;47.732;7.346;2023-08-17T11:23:32;98113.33;;;24.94;68.09
71996;BME280;59862;47.732;7.346;2023-08-17T11:26:00;98109.34;;;25.19;65.74
71996;BME280;59862;47.732;7.346;2023-08-17T11:28:30;98111.23;;;25.45;65.15
71996;BME280;59862;47.732;7.346;2023-08-17T11:31:02;98110.30;;;25.32;64.35
71996;BME280;59862;47.732;7.346;2023-08-17T11:33:31;98109.59;;;25.60;64.75
71996;BME280;59862;47.732;7.346;2023-08-17T11:36:00;98112.97;;;25.48;65.06
71996;BME280;59862;47.732;7.346;2023-08-17T11:38:39;98111.91;;;25.41;64.32
71996;BME280;59862;47.732;7.346;2023-08-17T11:41:07;98103.67;;;25.90;63.20
71996;BME280;59862;47.732;7.346;2023-08-17T11:43:35;98094.56;;;26.63;59.98
71996;BME280;59862;47.732;7.346;2023-08-17T11:46:05;98097.07;;;26.91;57.87
71996;BME280;59862;47.732;7.346;2023-08-17T11:48:33;98103.25;;;27.28;57.74
71996;BME280;59862;47.732;7.346;2023-08-17T11:51:01;98104.93;;;27.76;54.54
71996;BME280;59862;47.732;7.346;2023-08-17T11:53:33;98102.67;;;27.12;56.61
71996;BME280;59862;47.732;7.346;2023-08-17T11:56:01;98095.77;;;26.95;58.73
71996;BME280;59862;47.732;7.346;2023-08-17T11:58:41;98092.21;;;26.45;58.36
71996;BME280;59862;47.732;7.346;2023-08-17T12:01:10;98088.41;;;26.55;56.80
71996;BME280;59862;47.732;7.346;2023-08-17T12:03:38;98084.06;;;26.63;56.06
71996;BME280;59862;47.732;7.346;2023-08-17T12:06:08;98073.13;;;27.13;55.63
71996;BME280;59862;47.732;7.346;2023-08-17T12:08:35;98077.65;;;28.22;52.15
71996;BME280;59862;47.732;7.346;2023-08-17T12:11:03;98068.11;;;29.55;49.58
71996;BME280;59862;47.732;7.346;2023-08-17T12:13:35;98069.74;;;29.43;48.22
71996;BME280;59862;47.732;7.346;2023-08-17T12:16:03;98068.47;;;28.73;49.77
71996;BME280;59862;47.732;7.346;2023-08-17T12:18:35;98064.17;;;30.88;46.22
71996;BME280;59862;47.732;7.346;2023-08-17T12:21:04;98059.53;;;31.55;43.32
71996;BME280;59862;47.732;7.346;2023-08-17T12:23:33;98055.88;;;31.96;41.59
71996;BME280;59862;47.732;7.346;2023-08-17T12:26:00;98049.46;;;33.66;37.29
71996;BME280;59862;47.732;7.346;2023-08-17T12:28:28;98047.15;;;34.66;33.92
71996;BME280;59862;47.732;7.346;2023-08-17T12:31:02;98050.22;;;31.49;40.71
71996;BME280;59862;47.732;7.346;2023-08-17T12:33:30;98056.42;;;29.96;42.03
71996;BME280;59862;47.732;7.346;2023-08-17T12:35:58;98048.27;;;29.75;44.33
71996;BME280;59862;47.732;7.346;2023-08-17T12:38:26;98048.68;;;30.87;43.07
71996;BME280;59862;47.732;7.346;2023-08-17T12:40:54;98049.27;;;33.20;38.15
71996;BME280;59862;47.732;7.346;2023-08-17T12:43:22;98055.01;;;35.14;33.38
71996;BME280;59862;47.732;7.346;2023-08-17T12:45:49;98044.95;;;35.44;30.05
71996;BME280;59862;47.732;7.346;2023-08-17T12:48:17;98046.42;;;35.50;29.73
71996;BME280;59862;47.732;7.346;2023-08-17T12:50:44;98052.56;;;34.80;32.50
71996;BME280;59862;47.732;7.346;2023-08-17T12:53:12;98048.04;;;32.72;35.38
71996;BME280;59862;47.732;7.346;2023-08-17T12:55:39;98042.97;;;35.93;30.98
71996;BME280;59862;47.732;7.346;2023-08-17T12:58:10;98041.26;;;37.00;27.06
71996;BME280;59862;47.732;7.346;2023-08-17T13:00:37;98036.05;;;37.65;25.13
71996;BME280;59862;47.732;7.346;2023-08-17T13:03:05;98030.16;;;39.56;23.00
71996;BME280;59862;47.732;7.346;2023-08-17T13:05:33;98037.72;;;39.18;22.88
71996;BME280;59862;47.732;7.346;2023-08-17T13:08:01;98025.05;;;38.83;22.22
71996;BME280;59862;47.732;7.346;2023-08-17T13:10:29;98027.75;;;39.66;21.40
71996;BME280;59862;47.732;7.346;2023-08-17T13:12:56;98031.33;;;38.82;22.56
71996;BME280;59862;47.732;7.346;2023-08-17T13:15:26;98039.55;;;38.80;21.93